sensor_id;sensor_type;location;lat;lon;timestamp;temperature;humidity
68251;DHT22;55066;51.560;4.642;2023-07-13T00:00:14;17.19;80.41
68251;DHT22;55066;51.560;4.642;2023-07-13T00:02:42;17.50;80.43
68251;DHT22;55066;51.560;4.642;2023-07-13T00:05:08;17.36;82.47
68251;DHT22;55066;51.560;4.642;2023-07-13T00:07:34;17.19;81.13
68251;DHT22;55066;51.560;4.642;2023-07-13T00:10:02;17.01;84.38
68251;DHT22;55066;51.560;4.642;2023-07-13T00:12:30;17.11;82.93
68251;DHT22;55066;51.560;4.642;2023-07-13T00:14:58;16.81;83.08
68251;DHT22;55066;51.560;4.642;2023-07-13T00:17:29;17.07;83.62
68251;DHT22;55066;51.560;4.642;2023-07-13T00:19:57;16.94;83.44
68251;DHT22;55066;51.560;4.642;2023-07-13T00:22:23;16.79;84.24
68251;DHT22;55066;51.560;4.642;2023-07-13T00:24:52;16.83;83.45
68251;DHT22;55066;51.560;4.642;2023-07-13T00:27:18;16.84;83.88
68251;DHT22;55066;51.560;4.642;2023-07-13T00:29:44;16.69;84.03
68251;DHT22;55066;51.560;4.642;2023-07-13T00:32:10;16.48;84.43
68251;DHT22;55066;51.560;4.642;2023-07-13T00:34:37;16.26;88.13
68251;DHT22;55066;51.560;4.642;2023-07-13T00:37:04;16.26;83.18
68251;DHT22;55066;51.560;4.642;2023-07-13T00:39:34;16.09;84.28
68251;DHT22;55066;51.560;4.642;2023-07-13T00:42:00;16.38;87.32
68251;DHT22;55066;51.560;4.642;2023-07-13T00:44:26;16.51;84.76
68251;DHT22;55066;51.560;4.642;2023-07-13T00:46:53;16.60;81.71
68251;DHT22;55066;51.560;4.642;2023-07-13T00:49:22;16.64;80.45
68251;DHT22;55066;51.560;4.642;2023-07-13T00:51:55;16.55;82.92
68251;DHT22;55066;51.560;4.642;2023-07-13T00:54:24;16.29;86.10
68251;DHT22;55066;51.560;4.642;2023-07-13T00:56:53;16.43;82.44
68251;DHT22;55066;51.560;4.642;2023-07-13T00:59:21;16.59;85.18
68251;DHT22;55066;51.560;4.642;2023-07-13T01:01:48;16.45;83.19
68251;DHT22;55066;51.560;4.642;2023-07-13T01:04:14;16.33;84.48
68251;DHT22;55066;51.560;4.642;2023-07-13T01:06:40;16.32;88.33
68251;DHT22;55066;51.560;4.642;2023-07-13T01:09:09;16.14;83.79
68251;DHT22;55066;51.560;4.642;2023-07-13T01:11:35;16.17;85.76
68251;DHT22;55066;51.560;4.642;2023-07-13T01:14:03;16.32;86.95
68251;DHT22;55066;51.560;4.642;2023-07-13T01:16:34;16.11;85.95
68251;DHT22;55066;51.560;4.642;2023-07-13T01:19:00;16.38;83.22
68251;DHT22;55066;51.560;4.642;2023-07-13T01:21:32;16.30;82.18
68251;DHT22;55066;51.560;4.642;2023-07-13T01:23:58;16.24;83.79
68251;DHT22;55066;51.560;4.642;2023-07-13T01:26:24;16.21;88.32
68251;DHT22;55066;51.560;4.642;2023-07-13T01:28:49;16.09;85.65
68251;DHT22;55066;51.560;4.642;2023-07-13T01:31:15;16.01;87.77
68251;DHT22;55066;51.560;4.642;2023-07-13T01:33:42;15.98;84.68
68251;DHT22;55066;51.560;4.642;2023-07-13T01:36:09;16.05;85.64
68251;DHT22;55066;51.560;4.642;2023-07-13T01:38:37;16.04;83.32
68251;DHT22;55066;51.560;4.642;2023-07-13T01:41:03;16.14;83.63
68251;DHT22;55066;51.560;4.642;2023-07-13T01:43:29;16.24;84.42
68251;DHT22;55066;51.560;4.642;2023-07-13T01:45:55;15.97;86.11
68251;DHT22;55066;51.560;4.642;2023-07-13T01:48:20;16.38;81.95
68251;DHT22;55066;51.560;4.642;2023-07-13T01:50:47;16.32;86.38
68251;DHT22;55066;51.560;4.642;2023-07-13T01:53:13;16.22;87.94
68251;DHT22;55066;51.560;4.642;2023-07-13T01:55:39;16.21;84.68
68251;DHT22;55066;51.560;4.642;2023-07-13T01:58:05;16.22;85.48
68251;DHT22;55066;51.560;4.642;2023-07-13T02:00:31;15.86;88.17
68251;DHT22;55066;51.560;4.642;2023-07-13T02:02:56;15.78;85.47
68251;DHT22;55066;51.560;4.642;2023-07-13T02:05:22;16.01;88.36
68251;DHT22;55066;51.560;4.642;2023-07-13T02:07:48;15.96;88.26
68251;DHT22;55066;51.560;4.642;2023-07-13T02:10:14;15.81;86.56
68251;DHT22;55066;51.560;4.642;2023-07-13T02:12:41;15.98;84.67
68251;DHT22;55066;51.560;4.642;2023-07-13T02:15:07;15.93;87.92
68251;DHT22;55066;51.560;4.642;2023-07-13T02:17:34;15.87;89.36
68251;DHT22;55066;51.560;4.642;2023-07-13T02:20:00;15.71;84.99
68251;DHT22;55066;51.560;4.642;2023-07-13T02:22:25;15.69;91.43
68251;DHT22;55066;51.560;4.642;2023-07-13T02:24:51;15.73;86.43
68251;DHT22;55066;51.560;4.642;2023-07-13T02:27:18;15.54;89.09
68251;DHT22;55066;51.560;4.642;2023-07-13T02:29:45;15.67;87.52
68251;DHT22;55066;51.560;4.642;2023-07-13T02:32:10;15.73;85.07
68251;DHT22;55066;51.560;4.642;2023-07-13T02:34:36;15.60;91.96
68251;DHT22;55066;51.560;4.642;2023-07-13T02:37:03;15.38;93.80
68251;DHT22;55066;51.560;4.642;2023-07-13T02:39:29;15.31;92.28
68251;DHT22;55066;51.560;4.642;2023-07-13T02:41:55;15.23;87.84
68251;DHT22;55066;51.560;4.642;2023-07-13T02:44:20;15.26;90.74
68251;DHT22;55066;51.560;4.642;2023-07-13T02:46:46;15.46;89.79
68251;DHT22;55066;51.560;4.642;2023-07-13T02:49:12;15.46;88.97
68251;DHT22;55066;51.560;4.642;2023-07-13T02:51:38;15.32;86.56
68251;DHT22;55066;51.560;4.642;2023-07-13T02:54:04;15.25;88.98
68251;DHT22;55066;51.560;4.642;2023-07-13T02:56:31;15.35;85.46
68251;DHT22;55066;51.560;4.642;2023-07-13T02:58:57;15.36;86.73
68251;DHT22;55066;51.560;4.642;2023-07-13T03:01:24;15.69;82.97
68251;DHT22;55066;51.560;4.642;2023-07-13T03:03:51;15.83;86.30
68251;DHT22;55066;51.560;4.642;2023-07-13T03:06:17;15.66;88.33
68251;DHT22;55066;51.560;4.642;2023-07-13T03:08:49;15.46;93.96
68251;DHT22;55066;51.560;4.642;2023-07-13T03:11:18;15.56;86.01
68251;DHT22;55066;51.560;4.642;2023-07-13T03:13:47;15.64;89.73
68251;DHT22;55066;51.560;4.642;2023-07-13T03:16:14;15.38;90.15
68251;DHT22;55066;51.560;4.642;2023-07-13T03:18:45;15.31;88.88
68251;DHT22;55066;51.560;4.642;2023-07-13T03:21:11;15.31;94.39
68251;DHT22;55066;51.560;4.642;2023-07-13T03:23:38;15.25;91.99
68251;DHT22;55066;51.560;4.642;2023-07-13T03:26:11;15.26;90.99
68251;DHT22;55066;51.560;4.642;2023-07-13T03:28:39;15.21;95.93
68251;DHT22;55066;51.560;4.642;2023-07-13T03:31:08;15.06;94.33
68251;DHT22;55066;51.560;4.642;2023-07-13T03:33:35;14.91;90.39
68251;DHT22;55066;51.560;4.642;2023-07-13T03:36:03;15.14;88.92
68251;DHT22;55066;51.560;4.642;2023-07-13T03:38:30;15.06;90.83
68251;DHT22;55066;51.560;4.642;2023-07-13T03:40:58;15.05;91.31
68251;DHT22;55066;51.560;4.642;2023-07-13T03:43:23;15.22;90.61
68251;DHT22;55066;51.560;4.642;2023-07-13T03:45:49;15.22;89.07
68251;DHT22;55066;51.560;4.642;2023-07-13T03:48:14;15.32;86.06
68251;DHT22;55066;51.560;4.642;2023-07-13T03:50:40;15.50;94.68
68251;DHT22;55066;51.560;4.642;2023-07-13T03:53:05;15.53;91.75
68251;DHT22;55066;51.560;4.642;2023-07-13T03:55:31;15.63;90.49
68251;DHT22;55066;51.560;4.642;2023-07-13T03:57:59;15.67;92.80
68251;DHT22;55066;51.560;4.642;2023-07-13T04:00:25;15.61;94.08
68251;DHT22;55066;51.560;4.642;2023-07-13T04:02:52;15.66;92.32
68251;DHT22;55066;51.560;4.642;2023-07-13T04:05:19;15.80;92.28
68251;DHT22;55066;51.560;4.642;2023-07-13T04:07:45;15.84;92.67
68251;DHT22;55066;51.560;4.642;2023-07-13T04:10:11;15.86;90.78
68251;DHT22;55066;51.560;4.642;2023-07-13T04:12:36;15.96;89.53
68251;DHT22;55066;51.560;4.642;2023-07-13T04:15:03;16.11;87.36
68251;DHT22;55066;51.560;4.642;2023-07-13T04:17:28;16.02;93.84
68251;DHT22;55066;51.560;4.642;2023-07-13T04:19:54;16.19;93.40
68251;DHT22;55066;51.560;4.642;2023-07-13T04:22:19;16.28;91.54
68251;DHT22;55066;51.560;4.642;2023-07-13T04:24:45;16.39;93.13
68251;DHT22;55066;51.560;4.642;2023-07-13T04:27:10;16.35;91.14
68251;DHT22;55066;51.560;4.642;2023-07-13T04:29:36;16.26;94.31
68251;DHT22;55066;51.560;4.642;2023-07-13T04:32:02;16.21;93.35
68251;DHT22;55066;51.560;4.642;2023-07-13T04:34:27;16.18;94.64
68251;DHT22;55066;51.560;4.642;2023-07-13T04:36:53;16.35;86.80
68251;DHT22;55066;51.560;4.642;2023-07-13T04:39:18;16.41;93.63
68251;DHT22;55066;51.560;4.642;2023-07-13T04:41:44;16.41;90.60
68251;DHT22;55066;51.560;4.642;2023-07-13T04:44:11;16.53;86.10
68251;DHT22;55066;51.560;4.642;2023-07-13T04:46:38;16.53;90.69
68251;DHT22;55066;51.560;4.642;2023-07-13T04:49:04;16.59;91.51
68251;DHT22;55066;51.560;4.642;2023-07-13T04:51:29;16.66;91.74
68251;DHT22;55066;51.560;4.642;2023-07-13T04:53:55;16.60;91.58
68251;DHT22;55066;51.560;4.642;2023-07-13T04:56:20;16.63;91.27
68251;DHT22;55066;51.560;4.642;2023-07-13T04:58:46;16.66;92.28
68251;DHT22;55066;51.560;4.642;2023-07-13T05:01:11;16.62;95.61
68251;DHT22;55066;51.560;4.642;2023-07-13T05:03:39;16.63;93.53
68251;DHT22;55066;51.560;4.642;2023-07-13T05:06:08;16.76;92.69
68251;DHT22;55066;51.560;4.642;2023-07-13T05:08:40;16.93;88.51
68251;DHT22;55066;51.560;4.642;2023-07-13T05:11:06;16.97;92.71
68251;DHT22;55066;51.560;4.642;2023-07-13T05:13:32;17.15;90.44
68251;DHT22;55066;51.560;4.642;2023-07-13T05:16:02;17.24;90.78
68251;DHT22;55066;51.560;4.642;2023-07-13T05:18:29;17.35;92.32
68251;DHT22;55066;51.560;4.642;2023-07-13T05:21:07;17.43;88.38
68251;DHT22;55066;51.560;4.642;2023-07-13T05:23:34;17.22;93.50
68251;DHT22;55066;51.560;4.642;2023-07-13T05:26:01;17.35;86.18
68251;DHT22;55066;51.560;4.642;2023-07-13T05:28:27;17.46;91.36
68251;DHT22;55066;51.560;4.642;2023-07-13T05:30:53;17.62;82.22
68251;DHT22;55066;51.560;4.642;2023-07-13T05:33:20;17.56;89.82
68251;DHT22;55066;51.560;4.642;2023-07-13T05:35:46;17.61;87.79
68251;DHT22;55066;51.560;4.642;2023-07-13T05:38:12;17.55;91.44
68251;DHT22;55066;51.560;4.642;2023-07-13T05:40:38;17.63;91.81
68251;DHT22;55066;51.560;4.642;2023-07-13T05:43:04;17.72;88.43
68251;DHT22;55066;51.560;4.642;2023-07-13T05:45:29;17.79;90.58
68251;DHT22;55066;51.560;4.642;2023-07-13T05:47:55;17.75;89.55
68251;DHT22;55066;51.560;4.642;2023-07-13T05:50:20;17.82;85.70
68251;DHT22;55066;51.560;4.642;2023-07-13T05:52:46;17.89;90.43
68251;DHT22;55066;51.560;4.642;2023-07-13T05:55:12;17.93;91.15
68251;DHT22;55066;51.560;4.642;2023-07-13T05:57:40;17.96;86.06
68251;DHT22;55066;51.560;4.642;2023-07-13T06:00:06;17.97;91.77
68251;DHT22;55066;51.560;4.642;2023-07-13T06:02:37;17.93;89.12
68251;DHT22;55066;51.560;4.642;2023-07-13T06:05:03;18.03;91.49
68251;DHT22;55066;51.560;4.642;2023-07-13T06:07:28;18.41;90.20
68251;DHT22;55066;51.560;4.642;2023-07-13T06:09:54;18.80;89.86
68251;DHT22;55066;51.560;4.642;2023-07-13T06:12:19;18.80;86.30
68251;DHT22;55066;51.560;4.642;2023-07-13T06:14:45;18.85;80.99
68251;DHT22;55066;51.560;4.642;2023-07-13T06:17:11;18.44;88.46
68251;DHT22;55066;51.560;4.642;2023-07-13T06:19:37;18.22;88.93
68251;DHT22;55066;51.560;4.642;2023-07-13T06:22:04;18.15;86.69
68251;DHT22;55066;51.560;4.642;2023-07-13T06:24:29;17.91;89.68
68251;DHT22;55066;51.560;4.642;2023-07-13T06:26:55;18.04;87.43
68251;DHT22;55066;51.560;4.642;2023-07-13T06:29:20;18.42;84.18
68251;DHT22;55066;51.560;4.642;2023-07-13T06:31:46;18.45;89.54
68251;DHT22;55066;51.560;4.642;2023-07-13T06:34:11;18.63;85.29
68251;DHT22;55066;51.560;4.642;2023-07-13T06:36:37;18.83;90.02
68251;DHT22;55066;51.560;4.642;2023-07-13T06:39:04;19.28;83.83
68251;DHT22;55066;51.560;4.642;2023-07-13T06:41:30;19.32;86.37
68251;DHT22;55066;51.560;4.642;2023-07-13T06:43:57;19.51;83.34
68251;DHT22;55066;51.560;4.642;2023-07-13T06:46:23;19.41;86.33
68251;DHT22;55066;51.560;4.642;2023-07-13T06:48:49;19.06;86.61
68251;DHT22;55066;51.560;4.642;2023-07-13T06:51:15;19.13;86.11
68251;DHT22;55066;51.560;4.642;2023-07-13T06:53:40;19.38;86.37
68251;DHT22;55066;51.560;4.642;2023-07-13T06:56:09;19.52;82.33
68251;DHT22;55066;51.560;4.642;2023-07-13T06:58:35;19.54;85.10
68251;DHT22;55066;51.560;4.642;2023-07-13T07:01:01;19.79;85.98
68251;DHT22;55066;51.560;4.642;2023-07-13T07:03:27;19.94;83.74
68251;DHT22;55066;51.560;4.642;2023-07-13T07:05:52;20.28;83.27
68251;DHT22;55066;51.560;4.642;2023-07-13T07:08:18;20.09;80.88
68251;DHT22;55066;51.560;4.642;2023-07-13T07:10:44;19.94;83.84
68251;DHT22;55066;51.560;4.642;2023-07-13T07:13:14;20.13;82.11
68251;DHT22;55066;51.560;4.642;2023-07-13T07:15:40;20.18;81.20
68251;DHT22;55066;51.560;4.642;2023-07-13T07:18:05;20.21;79.52
68251;DHT22;55066;51.560;4.642;2023-07-13T07:20:31;20.17;81.87
68251;DHT22;55066;51.560;4.642;2023-07-13T07:22:58;20.33;81.09
68251;DHT22;55066;51.560;4.642;2023-07-13T07:25:23;20.41;83.45
68251;DHT22;55066;51.560;4.642;2023-07-13T07:27:49;20.81;79.59
68251;DHT22;55066;51.560;4.642;2023-07-13T07:30:14;20.75;82.43
68251;DHT22;55066;51.560;4.642;2023-07-13T07:32:40;20.43;83.96
68251;DHT22;55066;51.560;4.642;2023-07-13T07:35:07;20.48;82.48
68251;DHT22;55066;51.560;4.642;2023-07-13T07:37:32;20.91;79.58
68251;DHT22;55066;51.560;4.642;2023-07-13T07:39:58;21.38;76.83
68251;DHT22;55066;51.560;4.642;2023-07-13T07:42:24;21.78;77.94
68251;DHT22;55066;51.560;4.642;2023-07-13T07:44:50;21.51;79.92
68251;DHT22;55066;51.560;4.642;2023-07-13T07:47:16;21.81;77.53
68251;DHT22;55066;51.560;4.642;2023-07-13T07:49:42;21.55;77.45
68251;DHT22;55066;51.560;4.642;2023-07-13T07:52:07;21.85;79.14
68251;DHT22;55066;51.560;4.642;2023-07-13T07:54:33;21.91;77.38
68251;DHT22;55066;51.560;4.642;2023-07-13T07:56:58;21.79;77.23
68251;DHT22;55066;51.560;4.642;2023-07-13T07:59:25;21.88;76.05
68251;DHT22;55066;51.560;4.642;2023-07-13T08:01:52;22.09;77.11
68251;DHT22;55066;51.560;4.642;2023-07-13T08:04:17;22.26;76.94
68251;DHT22;55066;51.560;4.642;2023-07-13T08:06:43;22.64;75.33
68251;DHT22;55066;51.560;4.642;2023-07-13T08:09:09;22.50;74.79
68251;DHT22;55066;51.560;4.642;2023-07-13T08:11:35;22.57;76.00
68251;DHT22;55066;51.560;4.642;2023-07-13T08:14:01;22.51;74.88
68251;DHT22;55066;51.560;4.642;2023-07-13T08:16:28;22.72;77.06
68251;DHT22;55066;51.560;4.642;2023-07-13T08:18:53;22.53;77.01
68251;DHT22;55066;51.560;4.642;2023-07-13T08:21:22;22.19;77.94
68251;DHT22;55066;51.560;4.642;2023-07-13T08:23:48;22.64;76.55
68251;DHT22;55066;51.560;4.642;2023-07-13T08:26:13;23.32;73.74
68251;DHT22;55066;51.560;4.642;2023-07-13T08:28:39;22.88;75.73
68251;DHT22;55066;51.560;4.642;2023-07-13T08:31:07;22.63;75.86
68251;DHT22;55066;51.560;4.642;2023-07-13T08:33:34;22.84;76.39
68251;DHT22;55066;51.560;4.642;2023-07-13T08:36:00;22.78;76.11
68251;DHT22;55066;51.560;4.642;2023-07-13T08:38:25;22.74;76.35
68251;DHT22;55066;51.560;4.642;2023-07-13T08:40:55;23.46;74.54
68251;DHT22;55066;51.560;4.642;2023-07-13T08:43:32;24.21;72.68
68251;DHT22;55066;51.560;4.642;2023-07-13T08:46:24;24.43;71.99
68251;DHT22;55066;51.560;4.642;2023-07-13T08:48:59;24.00;72.51
68251;DHT22;55066;51.560;4.642;2023-07-13T08:51:40;23.81;72.59
68251;DHT22;55066;51.560;4.642;2023-07-13T08:54:34;24.11;72.01
68251;DHT22;55066;51.560;4.642;2023-07-13T08:57:09;23.81;73.01
68251;DHT22;55066;51.560;4.642;2023-07-13T08:59:36;23.87;73.08
68251;DHT22;55066;51.560;4.642;2023-07-13T09:10:18;24.70;70.86
68251;DHT22;55066;51.560;4.642;2023-07-13T09:15:27;24.35;70.74
68251;DHT22;55066;51.560;4.642;2023-07-13T09:18:00;24.55;70.80
68251;DHT22;55066;51.560;4.642;2023-07-13T09:21:24;25.12;71.57
68251;DHT22;55066;51.560;4.642;2023-07-13T09:23:27;25.24;68.97
68251;DHT22;55066;51.560;4.642;2023-07-13T09:26:02;25.32;67.91
68251;DHT22;55066;51.560;4.642;2023-07-13T09:28:34;25.36;68.87
68251;DHT22;55066;51.560;4.642;2023-07-13T09:33:38;25.90;68.31
68251;DHT22;55066;51.560;4.642;2023-07-13T09:36:27;25.77;69.75
68251;DHT22;55066;51.560;4.642;2023-07-13T09:39:05;26.00;69.46
68251;DHT22;55066;51.560;4.642;2023-07-13T09:44:50;26.76;68.54
68251;DHT22;55066;51.560;4.642;2023-07-13T09:47:39;26.71;64.96
68251;DHT22;55066;51.560;4.642;2023-07-13T09:50:15;26.92;67.21
68251;DHT22;55066;51.560;4.642;2023-07-13T09:52:50;26.92;66.95
68251;DHT22;55066;51.560;4.642;2023-07-13T09:55:39;27.66;64.63
68251;DHT22;55066;51.560;4.642;2023-07-13T09:58:24;27.57;66.09
68251;DHT22;55066;51.560;4.642;2023-07-13T10:00:58;26.71;67.88
68251;DHT22;55066;51.560;4.642;2023-07-13T10:03:29;26.97;67.86
68251;DHT22;55066;51.560;4.642;2023-07-13T10:06:09;26.82;68.80
68251;DHT22;55066;51.560;4.642;2023-07-13T10:08:36;26.44;66.19
68251;DHT22;55066;51.560;4.642;2023-07-13T10:11:23;25.43;70.09
68251;DHT22;55066;51.560;4.642;2023-07-13T10:13:59;25.34;71.11
68251;DHT22;55066;51.560;4.642;2023-07-13T10:16:31;25.92;69.40
68251;DHT22;55066;51.560;4.642;2023-07-13T10:19:00;26.10;69.65
68251;DHT22;55066;51.560;4.642;2023-07-13T10:21:32;26.08;66.84
68251;DHT22;55066;51.560;4.642;2023-07-13T10:26:50;26.21;66.63
68251;DHT22;55066;51.560;4.642;2023-07-13T10:29:20;26.27;67.25
68251;DHT22;55066;51.560;4.642;2023-07-13T10:31:47;27.00;65.80
68251;DHT22;55066;51.560;4.642;2023-07-13T10:34:13;26.78;65.32
68251;DHT22;55066;51.560;4.642;2023-07-13T10:36:44;26.71;64.72
68251;DHT22;55066;51.560;4.642;2023-07-13T10:39:24;27.03;66.28
68251;DHT22;55066;51.560;4.642;2023-07-13T10:41:58;27.41;63.69
68251;DHT22;55066;51.560;4.642;2023-07-13T10:44:28;27.08;64.09
68251;DHT22;55066;51.560;4.642;2023-07-13T10:47:01;27.55;65.52
68251;DHT22;55066;51.560;4.642;2023-07-13T10:49:29;27.59;63.99
68251;DHT22;55066;51.560;4.642;2023-07-13T10:51:56;26.51;65.50
68251;DHT22;55066;51.560;4.642;2023-07-13T10:54:34;26.39;66.22
68251;DHT22;55066;51.560;4.642;2023-07-13T10:57:19;26.76;67.80
68251;DHT22;55066;51.560;4.642;2023-07-13T11:02:35;26.55;66.90
68251;DHT22;55066;51.560;4.642;2023-07-13T11:05:25;27.45;63.08
68251;DHT22;55066;51.560;4.642;2023-07-13T11:07:56;27.17;64.86
68251;DHT22;55066;51.560;4.642;2023-07-13T11:11:02;27.21;65.23
68251;DHT22;55066;51.560;4.642;2023-07-13T11:21:31;27.75;62.24
68251;DHT22;55066;51.560;4.642;2023-07-13T11:26:51;28.17;62.53
68251;DHT22;55066;51.560;4.642;2023-07-13T11:31:56;28.40;62.88
68251;DHT22;55066;51.560;4.642;2023-07-13T11:34:34;28.74;61.06
68251;DHT22;55066;51.560;4.642;2023-07-13T11:37:02;29.00;62.13
68251;DHT22;55066;51.560;4.642;2023-07-13T11:39:32;28.21;63.12
68251;DHT22;55066;51.560;4.642;2023-07-13T11:42:00;28.36;61.95
68251;DHT22;55066;51.560;4.642;2023-07-13T11:44:28;28.78;59.39
68251;DHT22;55066;51.560;4.642;2023-07-13T11:46:57;29.23;62.80
68251;DHT22;55066;51.560;4.642;2023-07-13T11:49:29;29.17;61.23
68251;DHT22;55066;51.560;4.642;2023-07-13T11:51:57;28.99;60.17
68251;DHT22;55066;51.560;4.642;2023-07-13T11:56:52;28.05;61.00
68251;DHT22;55066;51.560;4.642;2023-07-13T11:59:20;27.93;61.07
68251;DHT22;55066;51.560;4.642;2023-07-13T12:01:51;28.43;65.39
68251;DHT22;55066;51.560;4.642;2023-07-13T12:04:26;27.93;62.00
68251;DHT22;55066;51.560;4.642;2023-07-13T12:06:57;28.43;65.89
68251;DHT22;55066;51.560;4.642;2023-07-13T12:09:26;28.50;63.72
68251;DHT22;55066;51.560;4.642;2023-07-13T12:11:53;28.47;62.16
68251;DHT22;55066;51.560;4.642;2023-07-13T12:14:18;28.58;62.98
68251;DHT22;55066;51.560;4.642;2023-07-13T12:16:46;28.12;65.17
68251;DHT22;55066;51.560;4.642;2023-07-13T12:19:21;27.57;64.56
68251;DHT22;55066;51.560;4.642;2023-07-13T12:21:50;27.55;65.88
68251;DHT22;55066;51.560;4.642;2023-07-13T12:24:17;27.11;66.34
68251;DHT22;55066;51.560;4.642;2023-07-13T12:26:44;25.34;71.17
68251;DHT22;55066;51.560;4.642;2023-07-13T12:29:16;25.53;73.10
68251;DHT22;55066;51.560;4.642;2023-07-13T12:31:45;24.90;72.34
68251;DHT22;55066;51.560;4.642;2023-07-13T12:34:29;24.87;71.38
68251;DHT22;55066;51.560;4.642;2023-07-13T12:36:58;25.06;70.79
68251;DHT22;55066;51.560;4.642;2023-07-13T12:42:26;25.41;69.82
68251;DHT22;55066;51.560;4.642;2023-07-13T12:45:39;26.07;68.42
68251;DHT22;55066;51.560;4.642;2023-07-13T12:47:40;25.98;68.20
68251;DHT22;55066;51.560;4.642;2023-07-13T12:50:15;25.73;68.58
68251;DHT22;55066;51.560;4.642;2023-07-13T12:52:43;26.72;67.67
68251;DHT22;55066;51.560;4.642;2023-07-13T12:55:16;27.58;65.55
68251;DHT22;55066;51.560;4.642;2023-07-13T12:57:50;27.04;65.04
68251;DHT22;55066;51.560;4.642;2023-07-13T13:00:21;27.69;65.11
68251;DHT22;55066;51.560;4.642;2023-07-13T13:02:49;28.13;63.46
68251;DHT22;55066;51.560;4.642;2023-07-13T13:05:15;28.16;63.39
68251;DHT22;55066;51.560;4.642;2023-07-13T13:07:44;28.13;64.03
68251;DHT22;55066;51.560;4.642;2023-07-13T13:10:13;27.81;63.83
68251;DHT22;55066;51.560;4.642;2023-07-13T13:12:40;27.52;63.07
68251;DHT22;55066;51.560;4.642;2023-07-13T13:15:10;26.56;66.59
68251;DHT22;55066;51.560;4.642;2023-07-13T13:17:37;27.31;64.26
68251;DHT22;55066;51.560;4.642;2023-07-13T13:20:20;27.13;63.56
68251;DHT22;55066;51.560;4.642;2023-07-13T13:22:46;26.66;64.54
68251;DHT22;55066;51.560;4.642;2023-07-13T13:25:14;27.52;66.58
68251;DHT22;55066;51.560;4.642;2023-07-13T13:27:44;27.38;63.75
68251;DHT22;55066;51.560;4.642;2023-07-13T13:30:12;27.79;63.92
68251;DHT22;55066;51.560;4.642;2023-07-13T13:32:39;28.18;63.32
68251;DHT22;55066;51.560;4.642;2023-07-13T13:35:07;27.95;63.57
68251;DHT22;55066;51.560;4.642;2023-07-13T13:37:40;27.72;64.25
68251;DHT22;55066;51.560;4.642;2023-07-13T13:40:20;27.04;65.29
68251;DHT22;55066;51.560;4.642;2023-07-13T13:42:52;27.03;65.42
68251;DHT22;55066;51.560;4.642;2023-07-13T13:45:19;27.77;63.79
68251;DHT22;55066;51.560;4.642;2023-07-13T13:47:47;27.96;64.10
68251;DHT22;55066;51.560;4.642;2023-07-13T13:50:19;28.71;64.35
68251;DHT22;55066;51.560;4.642;2023-07-13T13:52:49;28.02;63.72
68251;DHT22;55066;51.560;4.642;2023-07-13T13:55:17;28.23;64.65
68251;DHT22;55066;51.560;4.642;2023-07-13T13:57:45;28.32;64.59
68251;DHT22;55066;51.560;4.642;2023-07-13T14:00:11;27.90;64.18
68251;DHT22;55066;51.560;4.642;2023-07-13T14:02:41;28.61;64.51
68251;DHT22;55066;51.560;4.642;2023-07-13T14:05:12;28.98;62.04
68251;DHT22;55066;51.560;4.642;2023-07-13T14:07:38;29.74;61.57
68251;DHT22;55066;51.560;4.642;2023-07-13T14:10:12;29.15;63.03
68251;DHT22;55066;51.560;4.642;2023-07-13T14:12:38;28.57;61.82
68251;DHT22;55066;51.560;4.642;2023-07-13T14:15:04;29.06;59.71
68251;DHT22;55066;51.560;4.642;2023-07-13T14:17:32;28.60;62.75
68251;DHT22;55066;51.560;4.642;2023-07-13T14:20:02;27.63;63.45
68251;DHT22;55066;51.560;4.642;2023-07-13T14:22:35;27.03;63.31
68251;DHT22;55066;51.560;4.642;2023-07-13T14:25:00;27.51;64.13
68251;DHT22;55066;51.560;4.642;2023-07-13T14:27:26;28.23;66.04
68251;DHT22;55066;51.560;4.642;2023-07-13T14:29:51;28.60;65.38
68251;DHT22;55066;51.560;4.642;2023-07-13T14:32:17;27.63;62.91
68251;DHT22;55066;51.560;4.642;2023-07-13T14:34:42;27.84;62.91
68251;DHT22;55066;51.560;4.642;2023-07-13T14:37:14;28.27;65.53
68251;DHT22;55066;51.560;4.642;2023-07-13T14:39:43;30.08;61.07
68251;DHT22;55066;51.560;4.642;2023-07-13T14:42:09;30.50;57.91
68251;DHT22;55066;51.560;4.642;2023-07-13T14:44:35;29.23;62.00
68251;DHT22;55066;51.560;4.642;2023-07-13T14:47:03;28.03;63.76
68251;DHT22;55066;51.560;4.642;2023-07-13T14:49:35;27.38;63.23
68251;DHT22;55066;51.560;4.642;2023-07-13T14:52:21;28.81;64.66
68251;DHT22;55066;51.560;4.642;2023-07-13T14:54:55;28.71;62.86
68251;DHT22;55066;51.560;4.642;2023-07-13T14:57:21;28.99;64.19
68251;DHT22;55066;51.560;4.642;2023-07-13T14:59:47;28.72;64.70
68251;DHT22;55066;51.560;4.642;2023-07-13T15:02:17;28.02;62.97
68251;DHT22;55066;51.560;4.642;2023-07-13T15:04:43;28.39;64.14
68251;DHT22;55066;51.560;4.642;2023-07-13T15:07:10;29.27;63.27
68251;DHT22;55066;51.560;4.642;2023-07-13T15:09:36;28.47;63.00
68251;DHT22;55066;51.560;4.642;2023-07-13T15:12:03;28.33;60.80
68251;DHT22;55066;51.560;4.642;2023-07-13T15:14:32;28.87;60.85
68251;DHT22;55066;51.560;4.642;2023-07-13T15:16:58;29.05;61.49
68251;DHT22;55066;51.560;4.642;2023-07-13T15:19:25;29.55;61.03
68251;DHT22;55066;51.560;4.642;2023-07-13T15:21:51;30.12;59.48
68251;DHT22;55066;51.560;4.642;2023-07-13T15:24:17;29.67;60.59
68251;DHT22;55066;51.560;4.642;2023-07-13T15:26:43;29.26;59.50
68251;DHT22;55066;51.560;4.642;2023-07-13T15:29:12;28.58;58.60
68251;DHT22;55066;51.560;4.642;2023-07-13T15:31:38;29.85;59.09
68251;DHT22;55066;51.560;4.642;2023-07-13T15:43:50;30.08;61.81
68251;DHT22;55066;51.560;4.642;2023-07-13T15:50:12;30.08;57.41
68251;DHT22;55066;51.560;4.642;2023-07-13T15:56:38;29.71;61.41
68251;DHT22;55066;51.560;4.642;2023-07-13T15:59:11;29.25;59.64
68251;DHT22;55066;51.560;4.642;2023-07-13T16:05:00;28.88;63.11
68251;DHT22;55066;51.560;4.642;2023-07-13T16:07:42;29.25;58.61
68251;DHT22;55066;51.560;4.642;2023-07-13T16:10:16;27.88;59.79
68251;DHT22;55066;51.560;4.642;2023-07-13T16:21:50;27.02;60.88
68251;DHT22;55066;51.560;4.642;2023-07-13T16:24:55;28.02;61.59
68251;DHT22;55066;51.560;4.642;2023-07-13T16:27:56;30.40;59.14
68251;DHT22;55066;51.560;4.642;2023-07-13T16:30:29;30.29;58.37
68251;DHT22;55066;51.560;4.642;2023-07-13T16:32:58;31.54;57.74
68251;DHT22;55066;51.560;4.642;2023-07-13T16:35:38;31.81;57.69
68251;DHT22;55066;51.560;4.642;2023-07-13T16:52:02;27.84;62.08
68251;DHT22;55066;51.560;4.642;2023-07-13T16:54:36;28.47;60.54
68251;DHT22;55066;51.560;4.642;2023-07-13T16:57:16;29.36;61.36
68251;DHT22;55066;51.560;4.642;2023-07-13T16:59:42;28.33;61.07
68251;DHT22;55066;51.560;4.642;2023-07-13T17:04:49;29.06;61.77
68251;DHT22;55066;51.560;4.642;2023-07-13T17:07:17;28.26;62.55